Calhoun, Louisiana
Current Conditions -  °F | °C
As of 9:15 AM on Monday 24 Nov 2014 (Local Time) from KRSN Reporting Station
Clear Clear  
Wind Chill: 52°   Ceiling: Unl
Heat Index: 52°   Visibility: 10mi
Dew Point: 38°   Wind: 8mph
Humidity: 59%   Direction: 320°NW
Pressure: 30"   Gusts: 18mph
Location:  32.51°N, 92.36°W
Report Text: KRSN 241515Z AUTO 32007G16KT 10SM CLR 11/04 A3000 RMK AO2 P0001 T01130035
Loading
Personal Weather Stations






























Interactive Weather Map New forecast layout! Learn more

10-Day Weather Forecast

Advertisements
Track Severe Weather on mobile